Time;durP1;ratioP1;P1;durP2;ratioP2;P2;SDS_P1;SDS_P2;PMS_P1;PMS_P2;Temp;Humidity;BMP_temperature;BMP_pressure;BME280_temperature;BME280_humidity;BME280_pressure;Samples;Min_cycle;Max_cycle;Signal;HPM_P1;HPM_P2
2023/04/05 00:01:27;;;;;;;7.00;4.10;;;;;;;;;;5066622;28;20045;-84
2023/04/05 00:03:57;;;;;;;8.35;4.10;;;;;;;;;;5052831;28;20029;-85
2023/04/05 00:06:30;;;;;;;9.02;4.13;;;;;;;;;;5075241;28;20136;-84
2023/04/05 00:08:58;;;;;;;7.95;4.97;;;;;;;;;;5071792;28;20033;-84
2023/04/05 00:11:28;;;;;;;8.68;5.00;;;;;;;;;;5050729;28;20090;-87
2023/04/05 00:13:53;;;;;;;13.52;5.38;;;;;;;;;;5064835;28;20029;-85
2023/04/05 00:16:22;;;;;;;8.93;5.00;;;;;;;;;;5068487;28;20035;-86
2023/04/05 00:18:53;;;;;;;9.20;4.97;;;;;;;;;;5067441;28;20032;-84
2023/04/05 00:21:25;;;;;;;8.10;4.72;;;;;;;;;;5080636;28;20384;-85
2023/04/05 00:23:52;;;;;;;8.70;4.70;;;;;;;;;;5068825;28;20044;-86
2023/04/05 00:26:18;;;;;;;7.47;4.70;;;;;;;;;;5064277;28;20043;-85
2023/04/05 00:28:48;;;;;;;11.02;4.85;;;;;;;;;;5077830;28;20036;-84
2023/04/05 00:31:15;;;;;;;10.90;5.07;;;;;;;;;;5051600;28;20037;-84
2023/04/05 00:33:40;;;;;;;9.95;4.97;;;;;;;;;;5062994;28;20033;-86
2023/04/05 00:36:14;;;;;;;9.48;5.00;;;;;;;;;;5042171;28;20037;-85
2023/04/05 00:38:41;;;;;;;10.65;5.28;;;;;;;;;;5061239;28;20040;-83
2023/04/05 00:41:07;;;;;;;8.82;4.60;;;;;;;;;;5059257;28;20107;-84
2023/04/05 00:43:33;;;;;;;13.32;6.28;;;;;;;;;;5064817;28;20067;-86
2023/04/05 00:46:00;;;;;;;10.93;5.85;;;;;;;;;;5064382;28;20032;-84
2023/04/05 00:48:26;;;;;;;12.82;5.50;;;;;;;;;;5055334;28;20044;-85
2023/04/05 00:50:52;;;;;;;9.43;4.57;;;;;;;;;;5067595;28;20096;-81
2023/04/05 00:53:18;;;;;;;7.28;4.18;;;;;;;;;;5058631;28;20034;-86
2023/04/05 00:55:46;;;;;;;9.63;5.20;;;;;;;;;;5053032;28;20037;-86
2023/04/05 00:58:12;;;;;;;9.23;5.60;;;;;;;;;;5066632;28;20024;-85
2023/04/05 01:00:39;;;;;;;9.50;4.88;;;;;;;;;;5065442;28;20059;-86
2023/04/05 01:03:06;;;;;;;7.97;4.55;;;;;;;;;;5056774;28;20487;-86
2023/04/05 01:05:48;;;;;;;9.32;4.55;;;;;;;;;;5062992;28;20091;-86
2023/04/05 01:08:27;;;;;;;7.70;4.23;;;;;;;;;;5069410;28;20374;-87
2023/04/05 01:11:00;;;;;;;7.82;3.80;;;;;;;;;;5059936;28;20064;-84
2023/04/05 01:13:25;;;;;;;6.80;4.07;;;;;;;;;;5060572;28;20068;-85
2023/04/05 01:15:51;;;;;;;5.57;3.60;;;;;;;;;;5066867;28;20033;-85
2023/04/05 01:18:17;;;;;;;8.50;4.15;;;;;;;;;;5054341;28;20116;-84
2023/04/05 01:21:19;;;;;;;6.93;4.43;;;;;;;;;;5063342;28;20074;-86
2023/04/05 01:24:14;;;;;;;9.48;4.82;;;;;;;;;;5062668;28;20041;-86
2023/04/05 01:26:58;;;;;;;9.73;4.75;;;;;;;;;;5080166;28;20128;-85
2023/04/05 01:29:34;;;;;;;;;;;;;;;;;;5063397;28;20124;-80
2023/04/05 01:32:22;;;;;;;6.55;3.80;;;;;;;;;;5067725;28;19913;-84
2023/04/05 01:35:00;;;;;;;5.78;3.65;;;;;;;;;;5076128;28;20037;-84
2023/04/05 01:37:31;;;;;;;6.00;3.60;;;;;;;;;;5071510;28;20450;-82
2023/04/05 01:39:58;;;;;;;6.25;3.55;;;;;;;;;;5054104;28;20402;-86
2023/04/05 01:42:25;;;;;;;5.50;3.60;;;;;;;;;;5052792;28;20033;-85
2023/04/05 01:44:51;;;;;;;5.95;3.13;;;;;;;;;;5068160;28;20036;-86
2023/04/05 01:47:17;;;;;;;6.68;3.70;;;;;;;;;;5061272;28;20045;-84
2023/04/05 01:49:42;;;;;;;6.72;3.60;;;;;;;;;;5052986;28;20087;-85
2023/04/05 01:52:08;;;;;;;5.88;3.60;;;;;;;;;;5054416;28;20032;-85
2023/04/05 01:54:33;;;;;;;7.25;3.58;;;;;;;;;;5055515;28;20039;-83
2023/04/05 01:56:59;;;;;;;7.07;3.70;;;;;;;;;;5077832;28;20090;-85
2023/04/05 01:59:24;;;;;;;6.05;3.47;;;;;;;;;;5078216;28;20052;-83
2023/04/05 02:01:50;;;;;;;7.15;3.70;;;;;;;;;;5078060;28;20029;-85
2023/04/05 02:04:17;;;;;;;7.47;3.65;;;;;;;;;;5066157;28;20120;-83
2023/04/05 02:06:42;;;;;;;7.90;3.97;;;;;;;;;;5063954;28;20068;-85
2023/04/05 02:09:08;;;;;;;6.28;3.70;;;;;;;;;;5059168;28;20041;-85
2023/04/05 02:11:33;;;;;;;5.35;3.67;;;;;;;;;;5049090;28;20065;-84
2023/04/05 02:13:59;;;;;;;7.00;3.80;;;;;;;;;;5081122;28;20033;-83
2023/04/05 02:16:25;;;;;;;6.75;3.50;;;;;;;;;;5056099;28;20120;-87
2023/04/05 02:18:56;;;;;;;6.85;3.58;;;;;;;;;;5057433;28;20040;-85
2023/04/05 02:21:22;;;;;;;5.35;3.40;;;;;;;;;;5051231;28;20032;-86
2023/04/05 02:23:48;;;;;;;7.63;3.35;;;;;;;;;;5060356;28;20131;-87
2023/04/05 02:26:14;;;;;;;5.40;3.50;;;;;;;;;;5062900;28;20043;-86
2023/04/05 02:28:40;;;;;;;5.68;3.25;;;;;;;;;;5063579;28;20046;-86
2023/04/05 02:31:12;;;;;;;6.60;3.58;;;;;;;;;;5064362;28;20041;-85
2023/04/05 02:33:40;;;;;;;5.60;3.40;;;;;;;;;;5043065;28;20069;-87
2023/04/05 02:36:08;;;;;;;6.78;3.80;;;;;;;;;;5067332;28;20050;-85
2023/04/05 02:38:34;;;;;;;6.25;3.67;;;;;;;;;;5053762;28;20041;-82
2023/04/05 02:40:59;;;;;;;7.07;3.70;;;;;;;;;;5070145;28;20036;-84
2023/04/05 02:43:25;;;;;;;6.35;3.78;;;;;;;;;;5060927;28;20041;-85
2023/04/05 02:45:51;;;;;;;6.88;4.13;;;;;;;;;;5062524;28;20458;-84
2023/04/05 02:48:17;;;;;;;6.57;4.00;;;;;;;;;;5058935;28;20055;-85
2023/04/05 02:50:48;;;;;;;7.47;4.50;;;;;;;;;;5061732;28;20048;-86
2023/04/05 02:53:15;;;;;;;8.05;3.95;;;;;;;;;;5056523;28;20035;-85
2023/04/05 02:55:41;;;;;;;7.15;4.10;;;;;;;;;;5057221;28;20128;-83
2023/04/05 02:58:07;;;;;;;7.35;3.80;;;;;;;;;;5044725;28;20436;-82
2023/04/05 03:00:44;;;;;;;8.85;4.68;;;;;;;;;;5074228;28;20016;-83
2023/04/05 03:03:10;;;;;;;10.73;5.20;;;;;;;;;;5071005;28;20097;-84
2023/04/05 03:05:40;;;;;;;7.28;3.92;;;;;;;;;;5069072;28;20032;-84
2023/04/05 03:08:07;;;;;;;6.88;3.92;;;;;;;;;;5051589;28;20041;-84
2023/04/05 03:10:35;;;;;;;6.43;3.83;;;;;;;;;;5061684;28;20033;-83
2023/04/05 03:13:12;;;;;;;8.93;3.85;;;;;;;;;;5059618;28;20025;-85
2023/04/05 03:15:40;;;;;;;6.40;3.80;;;;;;;;;;5056162;28;20405;-83
2023/04/05 03:18:10;;;;;;;8.77;4.70;;;;;;;;;;5059785;28;20079;-79
2023/04/05 03:20:40;;;;;;;6.25;3.85;;;;;;;;;;5067238;28;20041;-85
2023/04/05 03:23:09;;;;;;;;;;;;;;;;;;5055105;28;20029;-84
2023/04/05 03:25:40;;;;;;;9.07;4.28;;;;;;;;;;5044733;28;19958;-82
2023/04/05 03:28:09;;;;;;;7.90;4.10;;;;;;;;;;5065169;28;20491;-83
2023/04/05 03:30:38;;;;;;;9.13;4.65;;;;;;;;;;5053458;28;20033;-85
2023/04/05 03:33:14;;;;;;;7.40;4.07;;;;;;;;;;5065490;28;20062;-83
2023/04/05 03:35:47;;;;;;;6.13;3.95;;;;;;;;;;5069887;28;20491;-85
2023/04/05 03:38:13;;;;;;;7.75;4.00;;;;;;;;;;5062644;28;20043;-86
2023/04/05 03:40:58;;;;;;;7.05;3.75;;;;;;;;;;5065890;28;20044;-83
2023/04/05 03:43:24;;;;;;;8.43;3.92;;;;;;;;;;5070571;28;20490;-84
2023/04/05 03:45:49;;;;;;;5.57;3.65;;;;;;;;;;5065985;28;20037;-85
2023/04/05 03:48:19;;;;;;;8.38;4.05;;;;;;;;;;5072148;28;20129;-84
2023/04/05 03:50:46;;;;;;;7.57;3.92;;;;;;;;;;5059423;28;20055;-85
2023/04/05 03:53:12;;;;;;;5.53;3.63;;;;;;;;;;5078765;28;20059;-83
2023/04/05 03:55:39;;;;;;;7.43;4.47;;;;;;;;;;5068216;28;20039;-85
2023/04/05 03:58:05;;;;;;;5.80;3.50;;;;;;;;;;5062858;28;20059;-84
2023/04/05 04:00:34;;;;;;;6.35;3.95;;;;;;;;;;5053697;28;20029;-87
2023/04/05 04:03:14;;;;;;;9.43;4.47;;;;;;;;;;5057589;28;20037;-84
2023/04/05 04:05:43;;;;;;;8.95;4.80;;;;;;;;;;5085758;28;20046;-85
2023/04/05 04:08:10;;;;;;;8.60;4.78;;;;;;;;;;5070439;28;20498;-86
2023/04/05 04:10:36;;;;;;;8.98;4.22;;;;;;;;;;5066183;28;20051;-84
2023/04/05 04:13:08;;;;;;;6.78;3.90;;;;;;;;;;5064439;28;20024;-84
2023/04/05 04:15:34;;;;;;;6.03;3.80;;;;;;;;;;5064626;28;20467;-85
2023/04/05 04:18:15;;;;;;;4.95;3.25;;;;;;;;;;5058770;28;20059;-85
2023/04/05 04:21:05;;;;;;;5.80;3.92;;;;;;;;;;5068554;28;20039;-84
2023/04/05 04:23:54;;;;;;;5.13;3.67;;;;;;;;;;5061489;28;20037;-86
2023/04/05 04:26:39;;;;;;;6.10;3.75;;;;;;;;;;5060068;28;20080;-85
2023/04/05 04:29:45;;;;;;;6.38;3.70;;;;;;;;;;5046589;28;20115;-85
2023/04/05 04:35:41;;;;;;;7.60;4.13;;;;;;;;;;5058433;28;20463;-85
2023/04/05 04:38:25;;;;;;;6.80;3.95;;;;;;;;;;5059054;28;20508;-84
2023/04/05 04:41:32;;;;;;;8.68;4.35;;;;;;;;;;5045749;28;20103;-85
2023/04/05 04:44:01;;;;;;;6.35;3.90;;;;;;;;;;5080682;28;20545;-84
2023/04/05 04:46:33;;;;;;;5.32;3.38;;;;;;;;;;5067484;28;20049;-84
2023/04/05 04:49:05;;;;;;;8.40;3.40;;;;;;;;;;5045161;28;20035;-83
2023/04/05 04:51:31;;;;;;;7.75;3.42;;;;;;;;;;5056150;28;20036;-84
2023/04/05 04:53:57;;;;;;;5.43;3.00;;;;;;;;;;5064141;28;20036;-83
2023/04/05 04:56:23;;;;;;;6.20;3.10;;;;;;;;;;5066512;28;20045;-83
2023/04/05 04:58:49;;;;;;;6.50;3.47;;;;;;;;;;5068468;28;20048;-84
2023/04/05 05:01:14;;;;;;;6.00;3.15;;;;;;;;;;5071850;28;20033;-83
2023/04/05 05:03:41;;;;;;;17.98;9.30;;;;;;;;;;5078464;28;20037;-83
2023/04/05 05:06:07;;;;;;;20.55;8.10;;;;;;;;;;5054984;28;20063;-82
2023/04/05 05:08:34;;;;;;;13.95;4.65;;;;;;;;;;5067826;28;20032;-82
2023/04/05 05:11:00;;;;;;;7.82;4.90;;;;;;;;;;5076059;28;20044;-84
2023/04/05 05:13:25;;;;;;;13.02;4.88;;;;;;;;;;5054152;28;20033;-84
2023/04/05 05:15:51;;;;;;;9.85;4.40;;;;;;;;;;5055867;28;20033;-84
2023/04/05 05:18:17;;;;;;;7.20;4.60;;;;;;;;;;5075408;28;20100;-81
2023/04/05 05:20:43;;;;;;;8.77;4.93;;;;;;;;;;5063886;28;20419;-84
2023/04/05 05:23:08;;;;;;;9.52;5.30;;;;;;;;;;5052408;28;20457;-85
2023/04/05 05:25:34;;;;;;;13.75;7.50;;;;;;;;;;5072632;28;20120;-86
2023/04/05 05:27:59;;;;;;;13.38;7.57;;;;;;;;;;5060144;28;20037;-86
2023/04/05 05:30:27;;;;;;;11.02;6.70;;;;;;;;;;5045265;28;20407;-85
2023/04/05 05:32:52;;;;;;;10.18;6.28;;;;;;;;;;5053266;28;20513;-86
2023/04/05 05:35:18;;;;;;;12.18;7.00;;;;;;;;;;5058894;28;20065;-84
2023/04/05 05:37:44;;;;;;;12.73;6.60;;;;;;;;;;5068569;28;20468;-84
2023/04/05 05:40:15;;;;;;;14.40;7.15;;;;;;;;;;5059195;28;20029;-83
2023/04/05 05:42:40;;;;;;;11.18;6.72;;;;;;;;;;5053463;28;20040;-85
2023/04/05 05:45:07;;;;;;;12.32;6.75;;;;;;;;;;5065761;28;20055;-84
2023/04/05 05:47:32;;;;;;;9.25;5.57;;;;;;;;;;5066460;28;20040;-82
2023/04/05 05:49:58;;;;;;;10.57;5.93;;;;;;;;;;5072030;28;20036;-84
2023/04/05 05:52:23;;;;;;;10.05;5.07;;;;;;;;;;5056595;28;20497;-84
2023/04/05 05:54:49;;;;;;;10.68;5.20;;;;;;;;;;5056148;28;20100;-85
2023/04/05 05:57:14;;;;;;;9.57;5.38;;;;;;;;;;5064493;28;20036;-81
2023/04/05 05:59:40;;;;;;;9.63;5.82;;;;;;;;;;5072790;28;20060;-83
2023/04/05 06:02:06;;;;;;;11.57;6.55;;;;;;;;;;5075030;28;20401;-83
2023/04/05 06:04:33;;;;;;;12.77;6.65;;;;;;;;;;5074971;28;20071;-81
2023/04/05 06:06:59;;;;;;;15.38;6.72;;;;;;;;;;5059207;28;20080;-82
2023/04/05 06:09:25;;;;;;;11.05;6.65;;;;;;;;;;5059862;28;20460;-83
2023/04/05 06:11:52;;;;;;;13.98;6.32;;;;;;;;;;5064942;28;20024;-82
2023/04/05 06:14:17;;;;;;;9.25;5.22;;;;;;;;;;5064996;28;20043;-83
2023/04/05 06:16:43;;;;;;;11.45;6.18;;;;;;;;;;5077947;28;20025;-83
2023/04/05 06:19:08;;;;;;;10.10;5.57;;;;;;;;;;5052380;28;20160;-84
2023/04/05 06:21:34;;;;;;;10.80;5.35;;;;;;;;;;5045068;28;20498;-84
2023/04/05 06:24:00;;;;;;;8.75;5.28;;;;;;;;;;5059057;28;20062;-83
2023/04/05 06:26:27;;;;;;;8.27;5.13;;;;;;;;;;5072043;28;20047;-84
2023/04/05 06:28:54;;;;;;;10.80;5.13;;;;;;;;;;5072729;28;20137;-82
2023/04/05 06:31:25;;;;;;;8.60;4.72;;;;;;;;;;5075498;28;20045;-83
2023/04/05 06:33:50;;;;;;;8.40;3.83;;;;;;;;;;5046973;28;20040;-83
2023/04/05 06:36:16;;;;;;;7.97;3.67;;;;;;;;;;5064561;28;20437;-83
2023/04/05 06:38:42;;;;;;;9.02;3.80;;;;;;;;;;5067750;28;20067;-83
2023/04/05 06:41:07;;;;;;;6.90;3.92;;;;;;;;;;5072262;28;20107;-82
2023/04/05 06:43:33;;;;;;;7.22;3.95;;;;;;;;;;5059853;28;20033;-84
2023/04/05 06:45:59;;;;;;;8.90;4.00;;;;;;;;;;5063459;28;20041;-84
2023/04/05 06:48:27;;;;;;;10.18;3.88;;;;;;;;;;5084013;28;20037;-85
2023/04/05 06:50:57;;;;;;;7.95;4.40;;;;;;;;;;5069360;28;20029;-84
2023/04/05 06:53:22;;;;;;;11.43;5.30;;;;;;;;;;5075312;28;20025;-83
2023/04/05 06:55:51;;;;;;;11.18;5.38;;;;;;;;;;5047248;28;20048;-85
2023/04/05 06:58:17;;;;;;;8.88;4.85;;;;;;;;;;5064211;28;20043;-85
2023/04/05 07:00:43;;;;;;;9.38;4.32;;;;;;;;;;5066572;28;20118;-85
2023/04/05 07:03:08;;;;;;;8.20;4.40;;;;;;;;;;5067540;28;20040;-85
2023/04/05 07:05:33;;;;;;;8.52;4.43;;;;;;;;;;5085444;28;20036;-84
2023/04/05 07:08:00;;;;;;;10.18;4.63;;;;;;;;;;5058234;28;20094;-85
2023/04/05 07:10:26;;;;;;;7.00;3.50;;;;;;;;;;5051381;28;20724;-85
2023/04/05 07:12:51;;;;;;;5.28;3.15;;;;;;;;;;5059366;28;20032;-85
2023/04/05 07:15:17;;;;;;;7.18;4.38;;;;;;;;;;5062297;28;20040;-83
2023/04/05 07:17:42;;;;;;;6.65;3.15;;;;;;;;;;5066708;28;20028;-82
2023/04/05 07:20:08;;;;;;;5.00;3.17;;;;;;;;;;5072988;28;20104;-84
2023/04/05 07:22:34;;;;;;;5.45;3.42;;;;;;;;;;5068193;28;20137;-85
2023/04/05 07:25:01;;;;;;;5.70;3.67;;;;;;;;;;5066353;28;20048;-85
2023/04/05 07:27:29;;;;;;;5.70;3.28;;;;;;;;;;5070507;28;20052;-85
2023/04/05 07:29:55;;;;;;;9.15;3.60;;;;;;;;;;5071899;28;20099;-85
2023/04/05 07:32:21;;;;;;;7.07;3.63;;;;;;;;;;5072470;28;20119;-85
2023/04/05 07:34:46;;;;;;;7.57;3.55;;;;;;;;;;5061846;28;20067;-85
2023/04/05 07:37:12;;;;;;;8.00;3.40;;;;;;;;;;5064739;28;20091;-83
2023/04/05 07:39:38;;;;;;;6.72;3.60;;;;;;;;;;5051450;28;20032;-85
2023/04/05 07:42:04;;;;;;;5.28;3.50;;;;;;;;;;5072667;28;20045;-84
2023/04/05 07:44:30;;;;;;;5.55;3.55;;;;;;;;;;5076391;28;20074;-85
2023/04/05 07:46:55;;;;;;;6.18;3.50;;;;;;;;;;5055991;28;20032;-83
2023/04/05 07:49:25;;;;;;;7.15;3.40;;;;;;;;;;5065378;28;20035;-85
2023/04/05 07:51:54;;;;;;;5.90;3.30;;;;;;;;;;5066547;28;20101;-85
2023/04/05 07:54:20;;;;;;;4.90;3.40;;;;;;;;;;5071756;28;20090;-84
2023/04/05 07:56:45;;;;;;;6.47;3.60;;;;;;;;;;5074122;28;20374;-84
2023/04/05 07:59:12;;;;;;;6.10;3.80;;;;;;;;;;5075929;28;20049;-85
2023/04/05 08:01:37;;;;;;;8.88;4.28;;;;;;;;;;5061146;28;20040;-85
2023/04/05 08:04:03;;;;;;;7.22;3.45;;;;;;;;;;5065129;28;20195;-87
2023/04/05 08:06:30;;;;;;;8.82;3.70;;;;;;;;;;5069417;28;20056;-83
2023/04/05 08:08:55;;;;;;;6.45;3.60;;;;;;;;;;5089876;28;20036;-86
2023/04/05 08:11:20;;;;;;;5.97;3.13;;;;;;;;;;5066582;28;20032;-86
2023/04/05 08:13:46;;;;;;;6.03;3.22;;;;;;;;;;5060419;28;20079;-84
2023/04/05 08:16:11;;;;;;;5.82;3.33;;;;;;;;;;5063325;28;20036;-84
2023/04/05 08:18:37;;;;;;;7.78;3.50;;;;;;;;;;5067860;28;20494;-84
2023/04/05 08:21:03;;;;;;;7.22;3.30;;;;;;;;;;5071570;28;20582;-87
2023/04/05 08:23:29;;;;;;;5.57;3.50;;;;;;;;;;5063067;28;20037;-85
2023/04/05 08:25:54;;;;;;;7.30;3.60;;;;;;;;;;5055153;28;20056;-84
2023/04/05 08:28:20;;;;;;;7.20;3.78;;;;;;;;;;5052557;28;20036;-86
2023/04/05 08:30:46;;;;;;;5.05;3.58;;;;;;;;;;5045704;28;20482;-85
2023/04/05 08:33:12;;;;;;;6.18;3.55;;;;;;;;;;5029268;28;20036;-86
2023/04/05 08:35:38;;;;;;;7.78;3.85;;;;;;;;;;5062844;28;20043;-85
2023/04/05 08:38:05;;;;;;;5.13;3.50;;;;;;;;;;5082533;28;20460;-85
2023/04/05 08:40:45;;;;;;;5.85;3.40;;;;;;;;;;5063090;28;20059;-86
2023/04/05 08:43:39;;;;;;;7.65;3.50;;;;;;;;;;5062113;28;20036;-82
2023/04/05 08:46:08;;;;;;;7.32;3.50;;;;;;;;;;5051343;28;20033;-84
2023/04/05 08:48:35;;;;;;;8.07;3.70;;;;;;;;;;5067722;28;20032;-83
2023/04/05 08:51:01;;;;;;;7.15;3.70;;;;;;;;;;5057157;28;20438;-85
2023/04/05 08:53:27;;;;;;;8.77;3.65;;;;;;;;;;5058101;28;20029;-85
2023/04/05 08:55:55;;;;;;;7.25;3.90;;;;;;;;;;5047933;28;20037;-85
2023/04/05 08:58:22;;;;;;;6.35;3.58;;;;;;;;;;5070341;28;20037;-85
2023/04/05 09:00:49;;;;;;;5.75;3.63;;;;;;;;;;5084077;28;20032;-84
2023/04/05 09:03:20;;;;;;;7.85;4.00;;;;;;;;;;5059201;28;20478;-85
2023/04/05 09:05:49;;;;;;;5.32;3.70;;;;;;;;;;5062066;28;20029;-87
2023/04/05 09:08:15;;;;;;;8.43;3.90;;;;;;;;;;5065490;28;20032;-85
2023/04/05 09:10:41;;;;;;;6.10;3.97;;;;;;;;;;5066152;28;20486;-86
2023/04/05 09:13:07;;;;;;;6.93;3.55;;;;;;;;;;5070261;28;20041;-85
2023/04/05 09:15:37;;;;;;;5.20;3.78;;;;;;;;;;5058482;28;20457;-85
2023/04/05 09:18:03;;;;;;;5.78;3.65;;;;;;;;;;5059332;28;20033;-85
2023/04/05 09:20:28;;;;;;;7.45;3.88;;;;;;;;;;5065426;28;20040;-85
2023/04/05 09:22:55;;;;;;;6.10;3.83;;;;;;;;;;5068378;28;20124;-85
2023/04/05 09:25:39;;;;;;;6.38;4.00;;;;;;;;;;5074846;28;20033;-85
2023/04/05 09:28:05;;;;;;;6.32;3.65;;;;;;;;;;5055990;28;20032;-82
2023/04/05 09:30:32;;;;;;;6.57;3.90;;;;;;;;;;5061884;28;20052;-85
2023/04/05 09:32:58;;;;;;;5.07;3.40;;;;;;;;;;5066963;28;20037;-85
2023/04/05 09:35:27;;;;;;;6.72;3.80;;;;;;;;;;5067617;28;20051;-85
2023/04/05 09:37:57;;;;;;;6.50;4.05;;;;;;;;;;5067328;28;20039;-85
2023/04/05 09:40:42;;;;;;;6.65;3.92;;;;;;;;;;5023804;28;20037;-86
2023/04/05 09:43:08;;;;;;;5.43;3.50;;;;;;;;;;5061626;28;20037;-82
2023/04/05 09:45:39;;;;;;;7.47;3.70;;;;;;;;;;5065917;28;20271;-83
2023/04/05 09:48:04;;;;;;;7.90;3.75;;;;;;;;;;5069101;28;20036;-85
2023/04/05 09:50:30;;;;;;;6.55;3.80;;;;;;;;;;5075235;28;20074;-83
2023/04/05 09:53:17;;;;;;;6.80;4.00;;;;;;;;;;5058213;28;20516;-85
2023/04/05 09:55:44;;;;;;;5.68;3.70;;;;;;;;;;5049118;28;20048;-85
2023/04/05 09:58:18;;;;;;;7.22;4.15;;;;;;;;;;5067672;28;20036;-86
2023/04/05 10:00:52;;;;;;;7.30;3.60;;;;;;;;;;5086138;28;20036;-84
2023/04/05 10:03:17;;;;;;;;;;;;;;;;;;5066641;28;20444;-82
2023/04/05 10:05:43;;;;;;;6.28;3.63;;;;;;;;;;5058678;28;20046;-85
2023/04/05 10:08:09;;;;;;;5.88;3.97;;;;;;;;;;5044915;28;20037;-86
2023/04/05 10:10:42;;;;;;;5.15;3.90;;;;;;;;;;5066531;28;20029;-86
2023/04/05 10:13:08;;;;;;;6.43;4.28;;;;;;;;;;5070396;28;20036;-84
2023/04/05 10:15:34;;;;;;;6.32;4.07;;;;;;;;;;5073556;28;20131;-84
2023/04/05 10:18:14;;;;;;;7.63;4.53;;;;;;;;;;5037428;28;20568;-84
2023/04/05 10:20:46;;;;;;;5.93;4.15;;;;;;;;;;5040047;28;20033;-85
2023/04/05 10:23:43;;;;;;;8.15;4.32;;;;;;;;;;5062183;28;20035;-85
2023/04/05 10:26:20;;;;;;;9.55;4.18;;;;;;;;;;5083528;28;20058;-85
2023/04/05 10:28:54;;;;;;;6.47;3.92;;;;;;;;;;5071165;28;20033;-86
2023/04/05 10:31:42;;;;;;;6.95;4.18;;;;;;;;;;5054401;28;20063;-84
2023/04/05 10:34:32;;;;;;;5.72;3.75;;;;;;;;;;5058693;28;20061;-85
2023/04/05 10:37:00;;;;;;;6.32;3.97;;;;;;;;;;5062412;28;20047;-85
2023/04/05 10:39:44;;;;;;;6.50;4.43;;;;;;;;;;5065138;28;20068;-85
2023/04/05 10:42:19;;;;;;;;;;;;;;;;;;5059858;28;20049;-82
2023/04/05 10:44:50;;;;;;;6.15;3.58;;;;;;;;;;5058706;28;20011;-86
2023/04/05 10:47:18;;;;;;;5.45;3.63;;;;;;;;;;5043436;28;20038;-84
2023/04/05 10:49:50;;;;;;;6.32;3.95;;;;;;;;;;5065971;28;20032;-84
2023/04/05 10:52:17;;;;;;;8.20;4.20;;;;;;;;;;5068439;28;20040;-85
2023/04/05 10:54:43;;;;;;;7.05;4.00;;;;;;;;;;5065983;28;20033;-85
2023/04/05 10:57:09;;;;;;;7.05;4.72;;;;;;;;;;5042562;28;20038;-85
2023/04/05 10:59:40;;;;;;;6.32;4.50;;;;;;;;;;5041343;28;20037;-84
2023/04/05 11:02:07;;;;;;;8.07;3.83;;;;;;;;;;5062056;28;20033;-85
2023/04/05 11:04:33;;;;;;;7.40;4.22;;;;;;;;;;5069275;28;20024;-86
2023/04/05 11:07:14;;;;;;;7.90;3.90;;;;;;;;;;5067964;28;20056;-85
2023/04/05 11:10:03;;;;;;;8.48;4.30;;;;;;;;;;5060113;28;20033;-80
2023/04/05 11:12:47;;;;;;;9.00;5.03;;;;;;;;;;5063262;28;20037;-85
2023/04/05 11:15:27;;;;;;;7.00;4.10;;;;;;;;;;5069136;28;20033;-85
2023/04/05 11:18:04;;;;;;;6.05;4.03;;;;;;;;;;5068592;28;20448;-83
2023/04/05 11:20:40;;;;;;;6.70;4.05;;;;;;;;;;5056760;28;20037;-83
2023/04/05 11:23:10;;;;;;;5.88;4.07;;;;;;;;;;5060273;28;20570;-84
2023/04/05 11:25:40;;;;;;;6.88;4.20;;;;;;;;;;5060384;28;20044;-86
2023/04/05 11:28:07;;;;;;;8.70;3.85;;;;;;;;;;5068569;28;20028;-85
2023/04/05 11:30:57;;;;;;;5.47;4.00;;;;;;;;;;5069782;28;20058;-85
2023/04/05 11:33:45;;;;;;;7.80;4.28;;;;;;;;;;5055158;28;20036;-84
2023/04/05 11:36:11;;;;;;;5.68;3.97;;;;;;;;;;5056632;28;20043;-84
2023/04/05 11:38:39;;;;;;;6.88;4.28;;;;;;;;;;5062090;28;20075;-86
2023/04/05 11:41:11;;;;;;;6.07;4.07;;;;;;;;;;5073930;28;20032;-82
2023/04/05 11:43:37;;;;;;;7.38;4.20;;;;;;;;;;5070965;28;20052;-83
2023/04/05 11:46:04;;;;;;;5.80;4.20;;;;;;;;;;5061712;28;20135;-83
2023/04/05 11:48:29;;;;;;;7.18;4.00;;;;;;;;;;5058506;28;20028;-85
2023/04/05 11:50:56;;;;;;;6.93;4.40;;;;;;;;;;5061261;28;20044;-85
2023/04/05 11:53:21;;;;;;;5.78;4.20;;;;;;;;;;5080658;28;20037;-87
2023/04/05 11:55:54;;;;;;;7.43;4.18;;;;;;;;;;5067776;28;20059;-83
2023/04/05 11:58:24;;;;;;;6.85;4.20;;;;;;;;;;5063082;28;20041;-86
2023/04/05 12:01:01;;;;;;;5.30;4.10;;;;;;;;;;5057565;28;20410;-83
2023/04/05 12:03:30;;;;;;;7.40;4.30;;;;;;;;;;5058877;28;20482;-86
2023/04/05 12:06:00;;;;;;;7.20;4.30;;;;;;;;;;5061289;28;20021;-84
2023/04/05 12:08:52;;;;;;;9.85;4.68;;;;;;;;;;5084624;28;20040;-85
2023/04/05 12:11:29;;;;;;;8.10;4.50;;;;;;;;;;5060985;28;20040;-84
2023/04/05 12:14:00;;;;;;;6.47;4.20;;;;;;;;;;5057641;28;20055;-85
2023/04/05 12:16:26;;;;;;;6.47;4.40;;;;;;;;;;5059352;28;20119;-85
2023/04/05 12:18:57;;;;;;;5.55;4.20;;;;;;;;;;5046721;28;20037;-84
2023/04/05 12:21:24;;;;;;;8.48;4.35;;;;;;;;;;5067922;28;20051;-86
2023/04/05 12:23:50;;;;;;;7.07;4.25;;;;;;;;;;5056733;28;20056;-83
2023/04/05 12:26:16;;;;;;;6.80;4.22;;;;;;;;;;5059853;28;20032;-82
2023/04/05 12:28:56;;;;;;;6.35;4.30;;;;;;;;;;5060921;28;20032;-86
2023/04/05 12:31:41;;;;;;;6.47;4.35;;;;;;;;;;5063525;28;20128;-85
2023/04/05 12:34:07;;;;;;;7.32;4.20;;;;;;;;;;5066418;28;20505;-85
2023/04/05 12:36:33;;;;;;;6.65;4.25;;;;;;;;;;5061037;28;20036;-86
2023/04/05 12:38:59;;;;;;;6.22;4.30;;;;;;;;;;5055128;28;20108;-84
2023/04/05 12:41:31;;;;;;;8.10;4.30;;;;;;;;;;5061794;28;20414;-84
2023/04/05 12:44:00;;;;;;;5.95;4.18;;;;;;;;;;5063456;28;20062;-82
2023/04/05 12:46:43;;;;;;;7.10;3.92;;;;;;;;;;5077858;28;20036;-85
2023/04/05 12:49:16;;;;;;;7.30;4.53;;;;;;;;;;5058270;28;20029;-84
2023/04/05 12:51:45;;;;;;;7.78;4.20;;;;;;;;;;5053164;28;20116;-84
2023/04/05 12:54:13;;;;;;;6.93;4.00;;;;;;;;;;5059849;28;20450;-83
2023/04/05 12:56:39;;;;;;;7.05;4.20;;;;;;;;;;5064005;28;20041;-85
2023/04/05 12:59:06;;;;;;;6.80;4.18;;;;;;;;;;5069067;28;20086;-85
2023/04/05 13:01:32;;;;;;;8.02;3.83;;;;;;;;;;5063639;28;20033;-85
2023/04/05 13:04:00;;;;;;;7.78;4.50;;;;;;;;;;5054646;28;20068;-86
2023/04/05 13:06:26;;;;;;;7.85;3.72;;;;;;;;;;5060053;28;20044;-84
2023/04/05 13:08:51;;;;;;;8.70;4.10;;;;;;;;;;5064231;28;20123;-84
2023/04/05 13:11:17;;;;;;;6.07;4.25;;;;;;;;;;5067735;28;20123;-85
2023/04/05 13:13:42;;;;;;;8.43;4.25;;;;;;;;;;5062828;28;20026;-85
2023/04/05 13:16:08;;;;;;;7.53;3.72;;;;;;;;;;5056908;28;20025;-83
2023/04/05 13:18:33;;;;;;;5.28;3.70;;;;;;;;;;5061496;28;20564;-83
2023/04/05 13:20:59;;;;;;;5.35;3.70;;;;;;;;;;5065833;28;20061;-85
2023/04/05 13:23:25;;;;;;;6.72;4.10;;;;;;;;;;5071018;28;20052;-85
2023/04/05 13:25:50;;;;;;;8.15;4.28;;;;;;;;;;5089374;28;20032;-84
2023/04/05 13:28:16;;;;;;;7.18;3.80;;;;;;;;;;5054709;28;20400;-84
2023/04/05 13:30:41;;;;;;;6.13;4.30;;;;;;;;;;5061707;28;20090;-83
2023/04/05 13:33:07;;;;;;;6.70;3.97;;;;;;;;;;5063858;28;20500;-85
2023/04/05 13:35:32;;;;;;;5.75;3.90;;;;;;;;;;5052306;28;20048;-85
2023/04/05 13:37:58;;;;;;;6.95;3.90;;;;;;;;;;5072277;28;20039;-83
2023/04/05 13:40:23;;;;;;;6.95;3.80;;;;;;;;;;5067788;28;20097;-86
2023/04/05 13:42:49;;;;;;;6.90;4.10;;;;;;;;;;5042714;28;20037;-86
2023/04/05 13:45:15;;;;;;;6.88;3.70;;;;;;;;;;5045576;28;20437;-85
2023/04/05 13:47:40;;;;;;;7.20;3.88;;;;;;;;;;5074199;28;20040;-83
2023/04/05 13:50:06;;;;;;;5.18;3.58;;;;;;;;;;5074393;28;20069;-86
2023/04/05 13:52:32;;;;;;;4.45;3.50;;;;;;;;;;5066471;28;20037;-85
2023/04/05 13:54:57;;;;;;;11.18;4.55;;;;;;;;;;5061154;28;20036;-85
2023/04/05 13:57:23;;;;;;;5.57;3.90;;;;;;;;;;5065594;28;20166;-84
2023/04/05 13:59:48;;;;;;;6.13;4.00;;;;;;;;;;5064209;28;20036;-85
2023/04/05 14:02:14;;;;;;;5.85;4.03;;;;;;;;;;5072750;28;20035;-85
2023/04/05 14:04:40;;;;;;;8.32;4.32;;;;;;;;;;5069935;28;20537;-85
2023/04/05 14:07:06;;;;;;;4.85;4.00;;;;;;;;;;5059840;28;20041;-85
2023/04/05 14:09:32;;;;;;;7.68;4.20;;;;;;;;;;5064409;28;20024;-84
2023/04/05 14:12:00;;;;;;;6.35;3.90;;;;;;;;;;5065878;28;20406;-85
2023/04/05 14:14:26;;;;;;;8.00;4.40;;;;;;;;;;5071903;28;20044;-84
2023/04/05 14:16:51;;;;;;;4.95;3.75;;;;;;;;;;5047760;28;20038;-83
2023/04/05 14:19:18;;;;;;;7.13;4.30;;;;;;;;;;5057570;28;20115;-85
2023/04/05 14:21:44;;;;;;;6.22;4.15;;;;;;;;;;5063900;28;20041;-85
2023/04/05 14:24:10;;;;;;;5.47;3.95;;;;;;;;;;5064428;28;20036;-86
2023/04/05 14:26:36;;;;;;;6.35;4.50;;;;;;;;;;5070350;28;20040;-83
2023/04/05 14:29:02;;;;;;;6.03;3.85;;;;;;;;;;5070380;28;20040;-84
2023/04/05 14:31:27;;;;;;;6.15;4.43;;;;;;;;;;5057220;28;20036;-85
2023/04/05 14:33:53;;;;;;;6.72;4.20;;;;;;;;;;5063817;28;20029;-85
2023/04/05 14:36:18;;;;;;;14.35;4.22;;;;;;;;;;5067239;28;20092;-85
2023/04/05 14:38:44;;;;;;;6.63;4.45;;;;;;;;;;5069794;28;20040;-83
2023/04/05 14:41:10;;;;;;;6.57;4.30;;;;;;;;;;5091074;28;20044;-86
2023/04/05 14:43:37;;;;;;;5.20;3.65;;;;;;;;;;5060674;28;20067;-85
2023/04/05 14:46:02;;;;;;;6.43;4.40;;;;;;;;;;5062041;28;20043;-85
2023/04/05 14:48:30;;;;;;;6.82;4.40;;;;;;;;;;5066101;28;20127;-85
2023/04/05 14:50:57;;;;;;;7.20;3.88;;;;;;;;;;5073477;28;20486;-86
2023/04/05 14:53:23;;;;;;;6.85;3.83;;;;;;;;;;5065171;28;20044;-86
2023/04/05 14:55:49;;;;;;;8.43;4.45;;;;;;;;;;5061171;28;20033;-83
2023/04/05 14:58:15;;;;;;;9.57;4.18;;;;;;;;;;5060489;28;20044;-87